Time;durP1;ratioP1;P1;durP2;ratioP2;P2;SDS_P1;SDS_P2;PMS_P1;PMS_P2;Temp;Humidity;BMP_temperature;BMP_pressure;BME280_temperature;BME280_humidity;BME280_pressure;Samples;Min_cycle;Max_cycle;Signal;HPM_P1;HPM_P2
2023/04/24 00:00:56;;;;;;;;;;;10.70;99.90;;;;;;5073443;28;20405;-71
2023/04/24 00:03:25;;;;;;;;;;;10.70;99.90;;;;;;5075856;28;19998;-71
2023/04/24 00:05:51;;;;;;;;;;;10.80;99.90;;;;;;5055920;28;19932;-73
2023/04/24 00:08:18;;;;;;;;;;;10.70;99.90;;;;;;5071359;28;20125;-72
2023/04/24 00:10:44;;;;;;;;;;;10.70;99.90;;;;;;5072930;28;19932;-70
2023/04/24 00:13:09;;;;;;;;;;;10.80;99.90;;;;;;5063383;28;20333;-71
2023/04/24 00:15:35;;;;;;;;;;;10.70;99.90;;;;;;5072924;28;20024;-72
2023/04/24 00:18:01;;;;;;;;;;;10.80;99.90;;;;;;5074675;28;19925;-71
2023/04/24 00:20:28;;;;;;;;;;;10.80;99.90;;;;;;5067019;28;20085;-72
2023/04/24 00:22:53;;;;;;;;;;;10.80;99.90;;;;;;5068333;28;19931;-72
2023/04/24 00:25:19;;;;;;;;;;;10.80;99.90;;;;;;5057005;28;19925;-71
2023/04/24 00:27:44;;;;;;;;;;;10.80;99.90;;;;;;5071586;28;19975;-72
2023/04/24 00:30:10;;;;;;;;;;;10.80;99.90;;;;;;5074415;28;20009;-71
2023/04/24 00:32:36;;;;;;;;;;;10.70;99.90;;;;;;5075954;28;19936;-71
2023/04/24 00:35:01;;;;;;;;;;;10.70;99.90;;;;;;5072484;28;19924;-71
2023/04/24 00:37:27;;;;;;;;;;;10.70;99.90;;;;;;5060551;28;19959;-71
2023/04/24 00:39:52;;;;;;;;;;;10.70;99.90;;;;;;5052989;28;19971;-71
2023/04/24 00:42:18;;;;;;;;;;;10.60;99.90;;;;;;5074138;28;20218;-72
2023/04/24 00:44:43;;;;;;;;;;;10.60;99.90;;;;;;5048171;28;19939;-71
2023/04/24 00:47:10;;;;;;;;;;;10.50;99.90;;;;;;5077452;28;19924;-71
2023/04/24 00:49:36;;;;;;;;;;;10.50;99.90;;;;;;5059609;28;19935;-71
2023/04/24 00:52:02;;;;;;;;;;;10.50;99.90;;;;;;5060962;28;19925;-70
2023/04/24 00:54:27;;;;;;;;;;;10.40;99.90;;;;;;5076156;28;19924;-71
2023/04/24 00:56:53;;;;;;;;;;;10.40;99.90;;;;;;5074238;28;19998;-72
2023/04/24 00:59:18;;;;;;;;;;;10.40;99.90;;;;;;5068421;28;19994;-72
2023/04/24 01:01:44;;;;;;;;;;;10.30;99.90;;;;;;5073250;28;19929;-72
2023/04/24 01:04:11;;;;;;;;;;;10.30;99.90;;;;;;5031001;28;19924;-71
2023/04/24 01:06:38;;;;;;;;;;;10.30;99.90;;;;;;5058452;28;19925;-71
2023/04/24 01:09:03;;;;;;;;;;;10.20;99.90;;;;;;5072864;28;20326;-71
2023/04/24 01:11:29;;;;;;;;;;;10.30;99.90;;;;;;5072840;28;20038;-71
2023/04/24 01:13:55;;;;;;;;;;;10.20;99.90;;;;;;5075016;28;20342;-71
2023/04/24 01:16:21;;;;;;;;;;;10.20;99.90;;;;;;5072791;28;19925;-72
2023/04/24 01:18:47;;;;;;;;;;;10.20;99.90;;;;;;5073463;28;19925;-71
2023/04/24 01:21:13;;;;;;;;;;;10.10;99.90;;;;;;5073713;28;19931;-71
2023/04/24 01:23:39;;;;;;;;;;;10.20;99.90;;;;;;5055725;28;19932;-71
2023/04/24 01:26:05;;;;;;;;;;;10.20;99.90;;;;;;5049537;28;19924;-71
2023/04/24 01:28:31;;;;;;;;;;;10.10;99.90;;;;;;5069673;28;19932;-71
2023/04/24 01:30:57;;;;;;;;;;;10.10;99.90;;;;;;5074068;28;19994;-71
2023/04/24 01:33:22;;;;;;;;;;;10.10;99.90;;;;;;5056044;28;20374;-71
2023/04/24 01:35:48;;;;;;;;;;;10.10;99.90;;;;;;5071853;28;19925;-71
2023/04/24 01:38:14;;;;;;;;;;;10.20;99.90;;;;;;5071399;28;19924;-71
2023/04/24 01:40:39;;;;;;;;;;;10.10;99.90;;;;;;5066609;28;19972;-71
2023/04/24 01:43:05;;;;;;;;;;;10.10;99.90;;;;;;5066266;28;19931;-71
2023/04/24 01:45:31;;;;;;;;;;;10.20;99.90;;;;;;5050620;28;19924;-71
2023/04/24 01:47:56;;;;;;;;;;;10.10;99.90;;;;;;5072752;28;20019;-72
2023/04/24 01:50:22;;;;;;;;;;;10.10;99.90;;;;;;5071101;28;20382;-71
2023/04/24 01:52:48;;;;;;;;;;;10.10;99.90;;;;;;5073725;28;19924;-71
2023/04/24 01:55:13;;;;;;;;;;;10.10;99.90;;;;;;5070512;28;19978;-71
2023/04/24 01:57:39;;;;;;;;;;;10.60;99.90;;;;;;5071074;28;20034;-70
2023/04/24 02:00:06;;;;;;;;;;;10.00;99.90;;;;;;5072209;28;19944;-71
2023/04/24 02:02:32;;;;;;;;;;;10.00;99.90;;;;;;5055291;28;19931;-71
2023/04/24 02:04:58;;;;;;;;;;;10.00;99.90;;;;;;5070088;28;20298;-71
2023/04/24 02:07:23;;;;;;;;;;;10.00;99.90;;;;;;5073063;28;19924;-71
2023/04/24 02:09:49;;;;;;;;;;;10.00;99.90;;;;;;5072831;28;20019;-71
2023/04/24 02:12:15;;;;;;;;;;;10.00;99.90;;;;;;5055273;28;20378;-70
2023/04/24 02:14:42;;;;;;;;;;;10.00;99.90;;;;;;5073207;28;19925;-71
2023/04/24 02:17:07;;;;;;;;;;;10.00;99.90;;;;;;5071197;28;19931;-71
2023/04/24 02:19:33;;;;;;;;;;;10.00;99.90;;;;;;5071509;28;20309;-71
2023/04/24 02:21:58;;;;;;;;;;;9.90;99.90;;;;;;5069319;28;19924;-71
2023/04/24 02:24:24;;;;;;;;;;;9.90;99.90;;;;;;5071752;28;19931;-72
2023/04/24 02:26:49;;;;;;;;;;;9.90;99.90;;;;;;5073162;28;19924;-71
2023/04/24 02:29:15;;;;;;;;;;;9.90;99.90;;;;;;5067898;28;19924;-72
2023/04/24 02:31:41;;;;;;;;;;;9.90;99.90;;;;;;5072067;28;19970;-71
2023/04/24 02:34:06;;;;;;;;;;;9.90;99.90;;;;;;5068285;28;20337;-71
2023/04/24 02:36:32;;;;;;;;;;;9.90;99.90;;;;;;5072355;28;20402;-71
2023/04/24 02:38:57;;;;;;;;;;;9.90;99.90;;;;;;5072717;28;20305;-71
2023/04/24 02:41:23;;;;;;;;;;;9.90;99.90;;;;;;5071777;28;20570;-71
2023/04/24 02:43:49;;;;;;;;;;;9.90;99.90;;;;;;5066196;28;19925;-72
2023/04/24 02:46:14;;;;;;;;;;;9.90;99.90;;;;;;5053864;28;19985;-71
2023/04/24 02:48:40;;;;;;;;;;;9.90;99.90;;;;;;5072299;28;19931;-70
2023/04/24 02:51:06;;;;;;;;;;;9.90;99.90;;;;;;5071410;28;19936;-71
2023/04/24 02:53:32;;;;;;;;;;;9.90;99.90;;;;;;5059690;28;20293;-70
2023/04/24 02:55:57;;;;;;;;;;;10.00;99.90;;;;;;5071434;28;19928;-70
2023/04/24 02:58:23;;;;;;;;;;;10.00;99.90;;;;;;5071076;28;20339;-69
2023/04/24 03:00:52;;;;;;;;;;;10.00;99.90;;;;;;5066280;28;19925;-69
2023/04/24 03:03:18;;;;;;;;;;;10.00;99.90;;;;;;5068667;28;19925;-70
2023/04/24 03:05:43;;;;;;;;;;;10.00;99.90;;;;;;5072757;28;19932;-71
2023/04/24 03:08:10;;;;;;;;;;;10.00;99.90;;;;;;5070487;28;20282;-70
2023/04/24 03:10:35;;;;;;;;;;;10.00;99.90;;;;;;5059206;28;19924;-71
2023/04/24 03:13:01;;;;;;;;;;;10.00;99.90;;;;;;5052530;28;19930;-71
2023/04/24 03:15:26;;;;;;;;;;;10.00;99.90;;;;;;5061301;28;19936;-70
2023/04/24 03:17:52;;;;;;;;;;;9.90;99.90;;;;;;5070366;28;19924;-71
2023/04/24 03:20:17;;;;;;;;;;;10.00;99.90;;;;;;5068179;28;19955;-70
2023/04/24 03:22:43;;;;;;;;;;;10.00;99.90;;;;;;5068103;28;19931;-71
2023/04/24 03:25:09;;;;;;;;;;;10.00;99.90;;;;;;5070766;28;19929;-71
2023/04/24 03:27:34;;;;;;;;;;;10.00;99.90;;;;;;5062445;28;20255;-71
2023/04/24 03:30:00;;;;;;;;;;;10.00;99.90;;;;;;5066829;28;20012;-70
2023/04/24 03:32:26;;;;;;;;;;;10.10;99.90;;;;;;5071907;28;20324;-70
2023/04/24 03:34:52;;;;;;;;;;;10.10;99.90;;;;;;5072379;28;19929;-71
2023/04/24 03:37:17;;;;;;;;;;;10.00;99.90;;;;;;5070999;28;19958;-70
2023/04/24 03:39:43;;;;;;;;;;;10.10;99.90;;;;;;5070636;28;19932;-70
2023/04/24 03:42:08;;;;;;;;;;;10.00;99.90;;;;;;5071501;28;19925;-71
2023/04/24 03:44:34;;;;;;;;;;;10.10;99.90;;;;;;5072059;28;19924;-71
2023/04/24 03:47:00;;;;;;;;;;;10.10;99.90;;;;;;5070198;28;20393;-72
2023/04/24 03:49:25;;;;;;;;;;;10.10;99.90;;;;;;5056800;28;19925;-71
2023/04/24 03:51:52;;;;;;;;;;;10.10;99.90;;;;;;5063723;28;19982;-70
2023/04/24 03:54:17;;;;;;;;;;;10.00;99.90;;;;;;5069949;28;19924;-70
2023/04/24 03:56:43;;;;;;;;;;;10.10;99.90;;;;;;5059094;28;20294;-70
2023/04/24 03:59:09;;;;;;;;;;;10.10;99.90;;;;;;5069319;28;19924;-70
2023/04/24 04:01:36;;;;;;;;;;;10.00;99.90;;;;;;5057566;28;20378;-70
2023/04/24 04:04:02;;;;;;;;;;;10.10;99.90;;;;;;5075329;28;20228;-71
2023/04/24 04:06:28;;;;;;;;;;;10.10;99.90;;;;;;5075439;28;20538;-71
2023/04/24 04:08:53;;;;;;;;;;;10.00;99.90;;;;;;5074684;28;19924;-71
2023/04/24 04:11:19;;;;;;;;;;;10.10;99.90;;;;;;5070300;28;20005;-70
2023/04/24 04:13:47;;;;;;;;;;;10.10;99.90;;;;;;5056727;28;19928;-71
2023/04/24 04:16:13;;;;;;;;;;;10.10;99.90;;;;;;5072928;28;20378;-70
2023/04/24 04:18:39;;;;;;;;;;;10.10;99.90;;;;;;5073200;28;19947;-71
2023/04/24 04:21:04;;;;;;;;;;;10.10;99.90;;;;;;5055614;28;19925;-71
2023/04/24 04:23:30;;;;;;;;;;;10.10;99.90;;;;;;5073863;28;19925;-72
2023/04/24 04:25:55;;;;;;;;;;;10.10;99.90;;;;;;5056539;28;19925;-70
2023/04/24 04:28:21;;;;;;;;;;;10.00;99.90;;;;;;5074986;28;19924;-71
2023/04/24 04:30:47;;;;;;;;;;;10.10;99.90;;;;;;5072554;28;19964;-71
2023/04/24 04:33:12;;;;;;;;;;;10.00;99.90;;;;;;5073457;28;19924;-72
2023/04/24 04:35:38;;;;;;;;;;;10.00;99.90;;;;;;5056735;28;19931;-72
2023/04/24 04:38:04;;;;;;;;;;;10.00;99.90;;;;;;5074141;28;20014;-72
2023/04/24 04:40:30;;;;;;;;;;;10.00;99.90;;;;;;5075578;28;20068;-72
2023/04/24 04:42:55;;;;;;;;;;;10.00;99.90;;;;;;5060584;28;19982;-72
2023/04/24 04:45:21;;;;;;;;;;;10.00;99.90;;;;;;5062894;28;19951;-72
2023/04/24 04:47:47;;;;;;;;;;;10.00;99.90;;;;;;5074192;28;19932;-73
2023/04/24 04:50:13;;;;;;;;;;;10.00;99.90;;;;;;5075012;28;19928;-72
2023/04/24 04:52:39;;;;;;;;;;;10.00;99.90;;;;;;5061517;28;19925;-72
2023/04/24 04:55:05;;;;;;;;;;;10.00;99.90;;;;;;5072182;28;19924;-72
2023/04/24 04:57:30;;;;;;;;;;;10.00;99.90;;;;;;5071956;28;20414;-72
2023/04/24 04:59:56;;;;;;;;;;;10.00;99.90;;;;;;5073367;28;20015;-73
2023/04/24 05:02:22;;;;;;;;;;;10.00;99.90;;;;;;5072910;28;19924;-73
2023/04/24 05:04:47;;;;;;;;;;;10.00;99.90;;;;;;5068711;28;19971;-72
2023/04/24 05:07:13;;;;;;;;;;;10.00;99.90;;;;;;5071820;28;20325;-72
2023/04/24 05:09:38;;;;;;;;;;;10.00;99.90;;;;;;5072642;28;20382;-72
2023/04/24 05:12:04;;;;;;;;;;;10.00;99.90;;;;;;5072858;28;19928;-70
2023/04/24 05:14:29;;;;;;;;;;;10.00;99.90;;;;;;5061966;28;19924;-71
2023/04/24 05:16:55;;;;;;;;;;;10.00;99.90;;;;;;5068378;28;19928;-72
2023/04/24 05:19:21;;;;;;;;;;;10.00;99.90;;;;;;5073351;28;19928;-72
2023/04/24 05:21:47;;;;;;;;;;;10.00;99.90;;;;;;5071890;28;19969;-71
2023/04/24 05:24:13;;;;;;;;;;;10.00;99.90;;;;;;5072201;28;19928;-70
2023/04/24 05:26:39;;;;;;;;;;;10.00;99.90;;;;;;5057221;28;20316;-71
2023/04/24 05:29:05;;;;;;;;;;;10.10;99.90;;;;;;5063208;28;20333;-72
2023/04/24 05:31:31;;;;;;;;;;;10.00;99.90;;;;;;5075566;28;19932;-72
2023/04/24 05:33:57;;;;;;;;;;;10.00;99.90;;;;;;5073584;28;20011;-72
2023/04/24 05:36:23;;;;;;;;;;;10.00;99.90;;;;;;5052392;28;19987;-70
2023/04/24 05:38:48;;;;;;;;;;;10.10;99.90;;;;;;5071101;28;20406;-71
2023/04/24 05:41:14;;;;;;;;;;;10.10;99.90;;;;;;5073910;28;19960;-72
2023/04/24 05:43:40;;;;;;;;;;;10.10;99.90;;;;;;5060676;28;20380;-75
2023/04/24 05:46:05;;;;;;;;;;;10.10;99.90;;;;;;5039119;28;20009;-71
2023/04/24 05:48:31;;;;;;;;;;;10.20;99.90;;;;;;5072878;28;19963;-71
2023/04/24 05:50:58;;;;;;;;;;;10.10;99.90;;;;;;5069903;28;19924;-70
2023/04/24 05:53:23;;;;;;;;;;;10.10;99.90;;;;;;5040141;28;20383;-70
2023/04/24 05:55:50;;;;;;;;;;;10.10;99.90;;;;;;5073303;28;20062;-71
2023/04/24 05:58:16;;;;;;;;;;;10.00;99.90;;;;;;5069466;28;19932;-70
2023/04/24 06:00:43;;;;;;;;;;;10.10;99.90;;;;;;5066917;28;21209;-70
2023/04/24 06:03:08;;;;;;;;;;;10.10;99.90;;;;;;5070704;28;19924;-70
2023/04/24 06:05:34;;;;;;;;;;;10.10;99.90;;;;;;5071953;28;19947;-70
2023/04/24 06:08:00;;;;;;;;;;;10.10;99.90;;;;;;5071581;28;20066;-70
2023/04/24 06:10:26;;;;;;;;;;;10.00;99.90;;;;;;5052013;28;19982;-71
2023/04/24 06:12:51;;;;;;;;;;;10.00;99.90;;;;;;5072815;28;19988;-70
2023/04/24 06:15:17;;;;;;;;;;;10.00;99.90;;;;;;5051667;28;20284;-70
2023/04/24 06:17:42;;;;;;;;;;;10.00;99.90;;;;;;5069294;28;19931;-70
2023/04/24 06:20:10;;;;;;;;;;;9.90;99.90;;;;;;5050007;28;19979;-70
2023/04/24 06:22:36;;;;;;;;;;;9.90;99.90;;;;;;5067127;28;19973;-70
2023/04/24 06:25:01;;;;;;;;;;;9.90;99.90;;;;;;5071423;28;20358;-70
2023/04/24 06:27:27;;;;;;;;;;;9.90;99.90;;;;;;5070869;28;20302;-71
2023/04/24 06:29:54;;;;;;;;;;;9.90;99.90;;;;;;5070492;28;20297;-71
2023/04/24 06:32:24;;;;;;;;;;;9.90;99.90;;;;;;5072209;28;19929;-71
2023/04/24 06:34:53;;;;;;;;;;;9.90;99.90;;;;;;5053047;28;20516;-71
2023/04/24 06:37:19;;;;;;;;;;;9.90;99.90;;;;;;5064339;28;19925;-71
2023/04/24 06:39:44;;;;;;;;;;;9.90;99.90;;;;;;5062524;28;20459;-72
2023/04/24 06:42:10;;;;;;;;;;;9.90;99.90;;;;;;5051305;28;19924;-71
2023/04/24 06:44:40;;;;;;;;;;;9.90;99.90;;;;;;5071271;28;19947;-72
2023/04/24 06:47:09;;;;;;;;;;;9.90;99.90;;;;;;5071098;28;19985;-71
2023/04/24 06:49:35;;;;;;;;;;;9.90;99.90;;;;;;5062830;28;19924;-70
2023/04/24 06:52:01;;;;;;;;;;;9.90;99.90;;;;;;5050679;28;20302;-70
2023/04/24 06:54:26;;;;;;;;;;;9.90;99.90;;;;;;5054580;28;19928;-70
2023/04/24 06:56:52;;;;;;;;;;;9.90;99.90;;;;;;5072141;28;20023;-70
2023/04/24 06:59:17;;;;;;;;;;;9.80;99.90;;;;;;5072145;28;19931;-70
2023/04/24 07:01:43;;;;;;;;;;;9.90;99.90;;;;;;5068346;28;20378;-72
2023/04/24 07:04:09;;;;;;;;;;;10.00;99.90;;;;;;5072789;28;20289;-72
2023/04/24 07:06:35;;;;;;;;;;;9.90;99.90;;;;;;5073008;28;19925;-70
2023/04/24 07:09:01;;;;;;;;;;;9.90;99.90;;;;;;5073107;28;19931;-70
2023/04/24 07:11:29;;;;;;;;;;;9.90;99.90;;;;;;5053628;28;19924;-71
2023/04/24 07:13:55;;;;;;;;;;;9.90;99.90;;;;;;5071026;28;19947;-70
2023/04/24 07:16:20;;;;;;;;;;;9.90;99.90;;;;;;5070454;28;20032;-69
2023/04/24 07:18:46;;;;;;;;;;;9.90;99.90;;;;;;5070552;28;20027;-69
2023/04/24 07:21:12;;;;;;;;;;;9.70;99.90;;;;;;5066354;28;19931;-70
2023/04/24 07:23:37;;;;;;;;;;;9.80;99.90;;;;;;5050855;28;19924;-70
2023/04/24 07:26:03;;;;;;;;;;;9.80;99.90;;;;;;5071017;28;19971;-69
2023/04/24 07:28:32;;;;;;;;;;;9.80;99.90;;;;;;5053261;28;19924;-71
2023/04/24 07:30:59;;;;;;;;;;;9.80;99.90;;;;;;5072859;28;20011;-70
2023/04/24 07:33:25;;;;;;;;;;;9.70;99.90;;;;;;5073258;28;20386;-69
2023/04/24 07:35:51;;;;;;;;;;;9.70;99.90;;;;;;5075277;28;19943;-69
2023/04/24 07:38:20;;;;;;;;;;;9.80;99.90;;;;;;5076573;28;20007;-71
2023/04/24 07:40:45;;;;;;;;;;;9.60;99.90;;;;;;5074634;28;19979;-69
2023/04/24 07:43:11;;;;;;;;;;;9.60;99.90;;;;;;5073639;28;19924;-69
2023/04/24 07:45:37;;;;;;;;;;;9.60;99.90;;;;;;5052583;28;19972;-69
2023/04/24 07:48:05;;;;;;;;;;;9.60;99.90;;;;;;5075711;28;19977;-70
2023/04/24 07:50:31;;;;;;;;;;;9.60;99.90;;;;;;5058038;28;19924;-70
2023/04/24 07:52:57;;;;;;;;;;;9.60;99.90;;;;;;5055981;28;20411;-69
2023/04/24 07:55:23;;;;;;;;;;;9.70;99.90;;;;;;5040399;28;19932;-69
2023/04/24 07:57:48;;;;;;;;;;;9.70;99.90;;;;;;5074886;28;19931;-70
2023/04/24 08:00:14;;;;;;;;;;;9.90;99.90;;;;;;5041147;28;20298;-69
2023/04/24 08:02:39;;;;;;;;;;;9.60;99.90;;;;;;5071617;28;19924;-69
2023/04/24 08:05:05;;;;;;;;;;;9.60;99.90;;;;;;5071566;28;19936;-69
2023/04/24 08:07:31;;;;;;;;;;;9.60;99.90;;;;;;5046115;28;19932;-69
2023/04/24 08:09:56;;;;;;;;;;;9.60;99.90;;;;;;5073154;28;19970;-70
2023/04/24 08:12:22;;;;;;;;;;;9.50;99.90;;;;;;5074980;28;19925;-70
2023/04/24 08:14:47;;;;;;;;;;;9.50;99.90;;;;;;5050794;28;19925;-70
2023/04/24 08:17:13;;;;;;;;;;;9.50;99.90;;;;;;5049203;28;19924;-69
2023/04/24 08:19:42;;;;;;;;;;;9.50;99.90;;;;;;5055021;28;19929;-69
2023/04/24 08:22:08;;;;;;;;;;;9.50;99.90;;;;;;5067213;28;20467;-69
2023/04/24 08:24:33;;;;;;;;;;;9.40;99.90;;;;;;5054761;28;19979;-68
2023/04/24 08:26:59;;;;;;;;;;;9.40;99.90;;;;;;5064443;28;19928;-69
2023/04/24 08:29:26;;;;;;;;;;;9.60;99.90;;;;;;5070780;28;19925;-68
2023/04/24 08:31:54;;;;;;;;;;;9.50;99.90;;;;;;5056052;28;19928;-69
2023/04/24 08:34:19;;;;;;;;;;;9.40;99.90;;;;;;5074314;28;19967;-70
2023/04/24 08:36:45;;;;;;;;;;;9.40;99.90;;;;;;5067903;28;19982;-69
2023/04/24 08:39:10;;;;;;;;;;;9.50;99.90;;;;;;5055523;28;19925;-70
2023/04/24 08:41:37;;;;;;;;;;;9.40;99.90;;;;;;5061616;28;19924;-69
2023/04/24 08:44:03;;;;;;;;;;;9.40;99.90;;;;;;5068657;28;19924;-70
2023/04/24 08:46:30;;;;;;;;;;;9.30;99.90;;;;;;5047073;28;20367;-70
2023/04/24 08:48:55;;;;;;;;;;;9.30;99.90;;;;;;5069117;28;20049;-70
2023/04/24 08:51:22;;;;;;;;;;;9.30;99.90;;;;;;5054375;28;20012;-70
2023/04/24 08:53:48;;;;;;;;;;;9.30;99.90;;;;;;5055914;28;19995;-70
2023/04/24 08:56:14;;;;;;;;;;;9.10;99.90;;;;;;5070619;28;20353;-71
2023/04/24 08:58:40;;;;;;;;;;;9.20;99.90;;;;;;5067720;28;19925;-69
2023/04/24 09:01:07;;;;;;;;;;;9.10;99.90;;;;;;5070072;28;19981;-70
2023/04/24 09:03:33;;;;;;;;;;;9.00;99.90;;;;;;5073359;28;19928;-70
2023/04/24 09:05:58;;;;;;;;;;;9.00;99.90;;;;;;5072182;28;20394;-70
2023/04/24 09:08:25;;;;;;;;;;;9.00;99.90;;;;;;5071186;28;19928;-70
2023/04/24 09:10:50;;;;;;;;;;;9.00;99.90;;;;;;5062546;28;19975;-71
2023/04/24 09:13:16;;;;;;;;;;;8.90;99.90;;;;;;5070667;28;20041;-71
2023/04/24 09:15:42;;;;;;;;;;;8.80;99.90;;;;;;5071485;28;20019;-69
2023/04/24 09:18:07;;;;;;;;;;;8.80;99.90;;;;;;5054231;28;19924;-70
2023/04/24 09:20:35;;;;;;;;;;;8.80;99.90;;;;;;5072409;28;20050;-71
2023/04/24 09:23:01;;;;;;;;;;;8.80;99.90;;;;;;5055757;28;19932;-70
2023/04/24 09:25:41;;;;;;;;;;;8.80;99.90;;;;;;5068139;28;19932;-71
2023/04/24 09:28:07;;;;;;;;;;;8.80;99.90;;;;;;5071289;28;19924;-70
2023/04/24 09:30:32;;;;;;;;;;;8.80;99.90;;;;;;5055219;28;19931;-70
2023/04/24 09:33:10;;;;;;;;;;;8.80;99.90;;;;;;5071887;28;19975;-71
2023/04/24 09:35:36;;;;;;;;;;;8.80;99.90;;;;;;5064753;28;19931;-71
2023/04/24 09:38:01;;;;;;;;;;;8.90;99.90;;;;;;5037514;28;20007;-71
2023/04/24 09:40:27;;;;;;;;;;;8.90;99.90;;;;;;5071975;28;19979;-70
2023/04/24 09:42:53;;;;;;;;;;;8.90;99.90;;;;;;5079945;28;20293;-71
2023/04/24 09:45:20;;;;;;;;;;;9.00;99.90;;;;;;5066849;28;19937;-70
2023/04/24 09:47:45;;;;;;;;;;;9.00;99.90;;;;;;5062096;28;19925;-70
2023/04/24 09:50:11;;;;;;;;;;;9.00;99.90;;;;;;5067665;28;20008;-71
2023/04/24 09:52:40;;;;;;;;;;;9.00;99.90;;;;;;5053506;28;19932;-70
2023/04/24 09:55:10;;;;;;;;;;;8.90;99.90;;;;;;5068811;28;20011;-70
2023/04/24 09:57:36;;;;;;;;;;;8.80;99.90;;;;;;5066168;28;19978;-70
2023/04/24 10:00:02;;;;;;;;;;;8.90;99.90;;;;;;5065034;28;19924;-70
2023/04/24 10:02:31;;;;;;;;;;;8.90;99.90;;;;;;5069041;28;19924;-70
2023/04/24 10:04:59;;;;;;;;;;;9.00;99.90;;;;;;5072781;28;19931;-71
2023/04/24 10:07:28;;;;;;;;;;;9.10;99.90;;;;;;5046562;28;19951;-70
2023/04/24 10:09:54;;;;;;;;;;;9.20;99.90;;;;;;5056766;28;19971;-70
2023/04/24 10:12:21;;;;;;;;;;;9.30;99.90;;;;;;5050810;28;20011;-70
2023/04/24 10:14:47;;;;;;;;;;;9.40;99.90;;;;;;5072667;28;20469;-70
2023/04/24 10:17:13;;;;;;;;;;;9.50;99.90;;;;;;5060719;28;20051;-70
2023/04/24 10:19:40;;;;;;;;;;;9.60;99.90;;;;;;5062240;28;20005;-69
2023/04/24 10:22:06;;;;;;;;;;;9.70;99.90;;;;;;5067198;28;19936;-70
2023/04/24 10:24:33;;;;;;;;;;;9.80;99.90;;;;;;5048665;28;20007;-70
2023/04/24 10:26:59;;;;;;;;;;;10.00;99.90;;;;;;5069937;28;19924;-70
2023/04/24 10:29:25;;;;;;;;;;;10.00;99.90;;;;;;5073155;28;19932;-69
2023/04/24 10:31:50;;;;;;;;;;;10.10;99.90;;;;;;5054790;28;19925;-69
2023/04/24 10:34:18;;;;;;;;;;;10.20;99.90;;;;;;5072161;28;19931;-69
2023/04/24 10:36:47;;;;;;;;;;;10.30;99.90;;;;;;5067735;28;20456;-69
2023/04/24 10:39:15;;;;;;;;;;;10.40;99.90;;;;;;5068956;28;19929;-70
2023/04/24 10:41:41;;;;;;;;;;;10.50;99.90;;;;;;5070067;28;19931;-69
2023/04/24 10:44:13;;;;;;;;;;;10.60;99.90;;;;;;5064476;28;19932;-70
2023/04/24 10:46:43;;;;;;;;;;;10.70;99.90;;;;;;5067841;28;20002;-70
2023/04/24 10:49:08;;;;;;;;;;;10.80;99.90;;;;;;5070438;28;20419;-70
2023/04/24 10:51:50;;;;;;;;;;;10.90;99.90;;;;;;5053931;28;19925;-70
2023/04/24 10:54:34;;;;;;;;;;;10.90;99.90;;;;;;5051511;28;19924;-70
2023/04/24 10:57:22;;;;;;;;;;;10.80;99.90;;;;;;5044439;28;19925;-70
2023/04/24 10:59:49;;;;;;;;;;;11.40;99.90;;;;;;5069551;28;19977;-70
2023/04/24 11:02:15;;;;;;;;;;;10.50;99.90;;;;;;5068130;28;19932;-70
2023/04/24 11:04:42;;;;;;;;;;;10.60;99.90;;;;;;5072428;28;19932;-71
2023/04/24 11:07:09;;;;;;;;;;;10.60;99.90;;;;;;5052089;28;20081;-70
2023/04/24 11:09:36;;;;;;;;;;;10.60;99.90;;;;;;5075017;28;19931;-70
2023/04/24 11:12:10;;;;;;;;;;;10.50;99.90;;;;;;5059732;28;19925;-70
2023/04/24 11:14:54;;;;;;;;;;;10.50;99.90;;;;;;5074996;28;19970;-70
2023/04/24 11:17:40;;;;;;;;;;;10.60;99.90;;;;;;5077374;28;19926;-71
2023/04/24 11:20:09;;;;;;;;;;;10.50;99.90;;;;;;5073683;28;19988;-70
2023/04/24 11:22:36;;;;;;;;;;;10.40;99.90;;;;;;5079074;28;19982;-70
2023/04/24 11:25:03;;;;;;;;;;;10.30;99.90;;;;;;5078587;28;19932;-70
2023/04/24 11:27:37;;;;;;;;;;;10.20;99.90;;;;;;5077897;28;20011;-70
2023/04/24 11:30:03;;;;;;;;;;;10.10;99.90;;;;;;5075869;28;20449;-70
2023/04/24 11:32:29;;;;;;;;;;;10.20;99.90;;;;;;5069576;28;20007;-71
2023/04/24 11:35:08;;;;;;;;;;;10.30;99.90;;;;;;5073167;28;19929;-70
2023/04/24 11:37:36;;;;;;;;;;;10.20;99.90;;;;;;5073558;28;20370;-70
2023/04/24 11:40:02;;;;;;;;;;;10.20;99.90;;;;;;5073759;28;19970;-70
2023/04/24 11:42:28;;;;;;;;;;;10.00;99.90;;;;;;5077006;28;19947;-70
2023/04/24 11:44:55;;;;;;;;;;;10.00;99.90;;;;;;5071640;28;20370;-70
2023/04/24 11:47:31;;;;;;;;;;;10.00;99.90;;;;;;5076614;28;20309;-71
2023/04/24 11:49:57;;;;;;;;;;;10.00;99.90;;;;;;5049637;28;19925;-71
2023/04/24 11:52:23;;;;;;;;;;;10.20;99.90;;;;;;5077634;28;19924;-70
2023/04/24 11:54:51;;;;;;;;;;;10.10;99.90;;;;;;5076147;28;20274;-71
2023/04/24 11:57:21;;;;;;;;;;;10.10;99.90;;;;;;5090301;28;20012;-69
2023/04/24 11:59:46;;;;;;;;;;;10.20;99.90;;;;;;5083633;28;19931;-69
2023/04/24 12:02:20;;;;;;;;;;;10.00;99.90;;;;;;5077135;28;20408;-70
2023/04/24 12:04:46;;;;;;;;;;;10.00;99.90;;;;;;5077583;28;20009;-69
2023/04/24 12:07:11;;;;;;;;;;;10.00;99.90;;;;;;5075690;28;19963;-69
2023/04/24 12:09:56;;;;;;;;;;;10.00;99.90;;;;;;5060265;28;19928;-70
2023/04/24 12:12:24;;;;;;;;;;;9.90;99.90;;;;;;5058891;28;20311;-69
2023/04/24 12:14:59;;;;;;;;;;;9.80;99.90;;;;;;5069833;28;19931;-69
2023/04/24 12:17:26;;;;;;;;;;;9.60;99.90;;;;;;5077773;28;20272;-69
2023/04/24 12:19:53;;;;;;;;;;;9.60;99.90;;;;;;5058950;28;19928;-69
2023/04/24 12:22:18;;;;;;;;;;;9.60;99.90;;;;;;5076078;28;19924;-69
2023/04/24 12:24:57;;;;;;;;;;;9.70;99.90;;;;;;5075571;28;19978;-69
2023/04/24 12:27:23;;;;;;;;;;;9.80;99.90;;;;;;5052281;28;19924;-69
2023/04/24 12:29:53;;;;;;;;;;;10.00;99.90;;;;;;5073754;28;20319;-69
2023/04/24 12:32:18;;;;;;;;;;;10.00;99.90;;;;;;5071435;28;19925;-71
2023/04/24 12:34:44;;;;;;;;;;;10.10;99.90;;;;;;5073453;28;20267;-70
2023/04/24 12:37:12;;;;;;;;;;;10.10;99.90;;;;;;5072827;28;20338;-71
2023/04/24 12:39:38;;;;;;;;;;;10.20;99.90;;;;;;5073704;28;20340;-71
2023/04/24 12:42:03;;;;;;;;;;;10.40;99.90;;;;;;5073552;28;19928;-69
2023/04/24 12:44:34;;;;;;;;;;;10.40;99.90;;;;;;5073813;28;20399;-69
2023/04/24 12:47:00;;;;;;;;;;;10.50;99.90;;;;;;5073953;28;19929;-69
2023/04/24 12:49:26;;;;;;;;;;;10.50;99.90;;;;;;5072354;28;20001;-69
2023/04/24 12:51:51;;;;;;;;;;;10.50;99.90;;;;;;5065967;28;20374;-70
2023/04/24 12:54:17;;;;;;;;;;;10.50;99.90;;;;;;5056646;28;19967;-70
2023/04/24 12:56:42;;;;;;;;;;;10.40;99.90;;;;;;5050819;28;19967;-71
2023/04/24 12:59:08;;;;;;;;;;;10.40;99.90;;;;;;5069512;28;20062;-71
2023/04/24 13:01:33;;;;;;;;;;;10.30;99.90;;;;;;5070103;28;20077;-71
2023/04/24 13:03:59;;;;;;;;;;;10.20;99.90;;;;;;5074196;28;20035;-71
2023/04/24 13:06:26;;;;;;;;;;;10.10;99.90;;;;;;5073669;28;19931;-71
2023/04/24 13:08:51;;;;;;;;;;;9.90;99.90;;;;;;5053592;28;19936;-71
2023/04/24 13:11:17;;;;;;;;;;;9.80;99.90;;;;;;5072862;28;20316;-70
2023/04/24 13:13:43;;;;;;;;;;;9.70;99.90;;;;;;5073696;28;19950;-70
2023/04/24 13:16:09;;;;;;;;;;;9.60;99.90;;;;;;5073700;28;19931;-70
2023/04/24 13:18:34;;;;;;;;;;;9.60;99.90;;;;;;5072910;28;19928;-71
2023/04/24 13:21:00;;;;;;;;;;;9.60;99.90;;;;;;5074528;28;20336;-70
2023/04/24 13:23:26;;;;;;;;;;;9.40;99.90;;;;;;5074644;28;19979;-70
2023/04/24 13:25:51;;;;;;;;;;;9.40;99.90;;;;;;5071820;28;19928;-70
2023/04/24 13:28:17;;;;;;;;;;;9.40;99.90;;;;;;5068188;28;19931;-70
2023/04/24 13:30:43;;;;;;;;;;;9.40;99.90;;;;;;5068824;28;19925;-71
2023/04/24 13:33:08;;;;;;;;;;;9.40;99.90;;;;;;5073861;28;20007;-70
2023/04/24 13:35:34;;;;;;;;;;;9.40;99.90;;;;;;5072132;28;19924;-70
2023/04/24 13:38:01;;;;;;;;;;;9.50;99.90;;;;;;5067247;28;19924;-70
2023/04/24 13:40:27;;;;;;;;;;;9.50;99.90;;;;;;5058711;28;19932;-70
2023/04/24 13:42:52;;;;;;;;;;;9.60;99.90;;;;;;5054428;28;19931;-70
2023/04/24 13:45:18;;;;;;;;;;;9.70;99.90;;;;;;5053246;28;20404;-70
2023/04/24 13:47:43;;;;;;;;;;;9.80;99.90;;;;;;5086058;28;19931;-71
2023/04/24 13:50:12;;;;;;;;;;;9.80;99.90;;;;;;5071567;28;19924;-70
2023/04/24 13:52:37;;;;;;;;;;;9.90;99.90;;;;;;5073765;28;19986;-71
2023/04/24 13:55:03;;;;;;;;;;;10.00;99.90;;;;;;5038647;28;20023;-71
2023/04/24 13:57:30;;;;;;;;;;;10.00;99.90;;;;;;5055050;28;20409;-70
2023/04/24 14:00:00;;;;;;;;;;;9.90;99.90;;;;;;5058244;28;20015;-71
2023/04/24 14:02:26;;;;;;;;;;;9.80;99.90;;;;;;5075391;28;19924;-70
2023/04/24 14:04:52;;;;;;;;;;;9.70;99.90;;;;;;5075800;28;19936;-70
2023/04/24 14:07:17;;;;;;;;;;;9.70;99.90;;;;;;5071318;28;19932;-70
2023/04/24 14:09:43;;;;;;;;;;;9.70;99.90;;;;;;5068381;28;19990;-70
2023/04/24 14:12:09;;;;;;;;;;;9.70;99.90;;;;;;5051674;28;19931;-70
2023/04/24 14:14:34;;;;;;;;;;;9.60;99.90;;;;;;5072229;28;19983;-71
2023/04/24 14:17:00;;;;;;;;;;;9.50;99.90;;;;;;5072533;28;20389;-70
2023/04/24 14:19:25;;;;;;;;;;;9.50;99.90;;;;;;5068847;28;19925;-70